createdAt,value
2022-11-17T00:00:43.408Z,3.90
2022-11-17T00:03:20.365Z,3.93
2022-11-17T00:05:51.660Z,4.22
2022-11-17T00:08:20.442Z,4.95
2022-11-17T00:10:51.857Z,6.25
2022-11-17T00:13:39.431Z,8.13
2022-11-17T00:16:06.211Z,5.17
2022-11-17T00:18:58.952Z,4.35
2022-11-17T00:21:28.995Z,3.95
2022-11-17T00:23:58.784Z,4.18
2022-11-17T00:26:31.730Z,4.80
2022-11-17T00:29:06.870Z,4.37
2022-11-17T00:31:52.893Z,4.75
2022-11-17T00:34:22.060Z,4.63
2022-11-17T00:36:53.963Z,4.32
2022-11-17T00:39:24.750Z,4.45
2022-11-17T00:41:51.355Z,4.20
2022-11-17T00:44:20.124Z,5.05
2022-11-17T00:46:51.497Z,4.43
2022-11-17T00:49:21.525Z,4.88
2022-11-17T00:51:54.471Z,3.95
2022-11-17T00:54:21.512Z,4.00
2022-11-17T00:56:50.821Z,3.75
2022-11-17T00:59:17.455Z,4.68
2022-11-17T01:01:47.546Z,4.57
2022-11-17T01:04:17.668Z,4.20
2022-11-17T01:06:47.000Z,4.93
2022-11-17T01:09:17.557Z,4.25
2022-11-17T01:11:44.387Z,3.50
2022-11-17T01:14:16.818Z,3.10
2022-11-17T01:16:45.918Z,3.75
2022-11-17T01:19:16.815Z,3.33
2022-11-17T01:21:44.168Z,2.90
2022-11-17T01:24:15.238Z,3.13
2022-11-17T01:26:42.645Z,2.75
2022-11-17T01:29:13.694Z,2.40
2022-11-17T01:31:43.986Z,2.40
2022-11-17T01:34:15.293Z,2.58
2022-11-17T01:37:04.201Z,2.15
2022-11-17T01:39:31.919Z,2.35
2022-11-17T01:42:04.014Z,2.15
2022-11-17T01:44:36.538Z,2.27
2022-11-17T01:47:17.188Z,2.10
2022-11-17T01:49:45.301Z,2.28
2022-11-17T01:52:13.145Z,1.65
2022-11-17T01:54:43.737Z,1.73
2022-11-17T01:57:19.821Z,1.90
2022-11-17T01:59:54.429Z,1.73
2022-11-17T02:02:21.297Z,1.90
2022-11-17T02:05:14.266Z,2.05
2022-11-17T02:07:42.985Z,1.70
2022-11-17T02:10:09.953Z,2.17
2022-11-17T02:12:42.845Z,2.35
2022-11-17T02:15:10.195Z,2.25
2022-11-17T02:17:38.905Z,2.30
2022-11-17T02:20:13.356Z,2.30
2022-11-17T02:23:26.724Z,2.60
2022-11-17T02:26:31.316Z,2.33
2022-11-17T02:29:00.863Z,2.10
2022-11-17T02:31:37.978Z,2.35
2022-11-17T02:34:35.615Z,2.40
2022-11-17T02:37:11.624Z,2.37
2022-11-17T02:39:55.677Z,2.00
2022-11-17T02:42:45.261Z,2.00
2022-11-17T02:45:20.977Z,1.85
2022-11-17T02:47:54.396Z,2.10
2022-11-17T02:50:28.450Z,2.10
2022-11-17T02:53:00.037Z,1.85
2022-11-17T02:55:27.757Z,2.00
2022-11-17T02:57:54.323Z,2.20
2022-11-17T03:00:21.030Z,2.10
2022-11-17T03:03:24.426Z,1.90
2022-11-17T03:06:29.259Z,1.80
2022-11-17T03:09:10.449Z,1.77
2022-11-17T03:11:50.192Z,2.00
2022-11-17T03:14:19.733Z,2.10
2022-11-17T03:17:07.026Z,1.93
2022-11-17T03:19:41.612Z,1.90
2022-11-17T03:22:08.173Z,1.65
2022-11-17T03:24:45.296Z,1.65
2022-11-17T03:27:21.191Z,2.00
2022-11-17T03:29:53.151Z,2.03
2022-11-17T03:32:23.406Z,1.63
2022-11-17T03:34:57.482Z,1.90
2022-11-17T03:37:33.816Z,1.75
2022-11-17T03:40:11.515Z,1.90
2022-11-17T03:42:42.268Z,1.80
2022-11-17T03:45:16.546Z,1.45
2022-11-17T03:47:44.743Z,1.50
2022-11-17T03:50:28.023Z,1.40
2022-11-17T03:52:57.384Z,1.55
2022-11-17T03:55:32.364Z,1.50
2022-11-17T03:58:09.335Z,1.60
2022-11-17T04:00:41.150Z,1.85
2022-11-17T04:03:10.448Z,1.67
2022-11-17T04:05:37.041Z,1.73
2022-11-17T04:08:12.014Z,1.52
2022-11-17T04:10:58.579Z,1.50
2022-11-17T04:13:43.790Z,1.15
2022-11-17T04:16:12.819Z,1.27
2022-11-17T04:18:39.382Z,1.25
2022-11-17T04:21:06.074Z,1.20
2022-11-17T04:23:32.868Z,1.10
2022-11-17T04:26:20.382Z,1.20
2022-11-17T04:28:50.903Z,1.35
2022-11-17T04:31:33.516Z,1.10
2022-11-17T04:34:02.319Z,1.67
2022-11-17T04:36:31.666Z,0.93
2022-11-17T04:38:59.653Z,0.82
2022-11-17T04:41:50.821Z,0.82
2022-11-17T04:44:22.050Z,1.45
2022-11-17T04:46:48.821Z,1.35
2022-11-17T04:49:20.025Z,0.97
2022-11-17T04:51:47.138Z,1.00
2022-11-17T04:54:18.177Z,1.10
2022-11-17T04:56:45.306Z,1.10
2022-11-17T04:59:12.042Z,1.25
2022-11-17T05:01:41.195Z,1.27
2022-11-17T05:04:12.613Z,1.15
2022-11-17T05:06:42.076Z,1.30
2022-11-17T05:09:16.937Z,1.20
2022-11-17T05:12:02.504Z,1.00
2022-11-17T05:14:30.439Z,0.97
2022-11-17T05:17:10.842Z,0.80
2022-11-17T05:19:40.216Z,1.10
2022-11-17T05:22:28.101Z,1.45
2022-11-17T05:24:55.471Z,1.63
2022-11-17T05:27:25.310Z,1.20
2022-11-17T05:29:52.008Z,1.13
2022-11-17T05:32:21.221Z,0.90
2022-11-17T05:34:47.955Z,0.90
2022-11-17T05:37:14.708Z,0.80
2022-11-17T05:39:44.257Z,1.20
2022-11-17T05:42:10.834Z,1.00
2022-11-17T05:44:40.110Z,1.00
2022-11-17T05:47:06.763Z,0.98
2022-11-17T05:49:33.397Z,0.88
2022-11-17T05:52:02.436Z,0.80
2022-11-17T05:54:29.047Z,0.90
2022-11-17T05:57:04.448Z,0.82
2022-11-17T05:59:55.279Z,0.80
2022-11-17T06:02:28.461Z,0.80
2022-11-17T06:04:58.026Z,0.77
2022-11-17T06:07:24.837Z,0.70
2022-11-17T06:09:52.214Z,0.77
2022-11-17T06:12:23.755Z,0.90
2022-11-17T06:14:50.317Z,0.65
2022-11-17T06:17:25.849Z,0.97
2022-11-17T06:20:01.587Z,0.60
2022-11-17T06:22:29.251Z,0.63
2022-11-17T06:24:58.697Z,0.60
2022-11-17T06:27:26.721Z,0.82
2022-11-17T06:29:55.211Z,0.70
2022-11-17T06:32:21.966Z,0.63
2022-11-17T06:34:55.763Z,0.63
2022-11-17T06:37:23.947Z,0.80
2022-11-17T06:39:55.773Z,0.95
2022-11-17T06:42:42.341Z,0.90
2022-11-17T06:45:09.518Z,0.80
2022-11-17T06:47:36.114Z,0.70
2022-11-17T06:50:03.248Z,0.82
2022-11-17T06:52:29.887Z,0.80
2022-11-17T06:54:58.734Z,0.80
2022-11-17T06:57:25.302Z,0.80
2022-11-17T06:59:54.185Z,0.80
2022-11-17T07:02:23.122Z,0.90
2022-11-17T07:04:49.680Z,0.90
2022-11-17T07:07:19.256Z,0.60
2022-11-17T07:09:45.866Z,0.60
2022-11-17T07:12:12.477Z,0.80
2022-11-17T07:14:39.041Z,0.70
2022-11-17T07:17:06.878Z,0.85
2022-11-17T07:19:35.971Z,0.70
2022-11-17T07:22:04.265Z,0.80
2022-11-17T07:24:33.390Z,0.63
2022-11-17T07:27:04.783Z,0.70
2022-11-17T07:29:36.094Z,0.60
2022-11-17T07:32:05.159Z,0.60
2022-11-17T07:34:34.052Z,0.70
2022-11-17T07:37:02.900Z,0.73
2022-11-17T07:39:31.935Z,0.60
2022-11-17T07:42:00.791Z,0.80
2022-11-17T07:44:27.371Z,0.70
2022-11-17T07:46:55.027Z,1.00
2022-11-17T07:49:21.674Z,0.80
2022-11-17T07:51:50.466Z,0.50
2022-11-17T07:54:19.267Z,0.70
2022-11-17T07:56:49.234Z,0.70
2022-11-17T07:59:21.394Z,0.80
2022-11-17T08:01:50.727Z,0.80
2022-11-17T08:04:20.279Z,0.70
2022-11-17T08:06:46.874Z,0.90
2022-11-17T08:09:15.573Z,0.77
2022-11-17T08:11:42.154Z,0.85
2022-11-17T08:14:08.793Z,0.60
2022-11-17T08:16:35.356Z,0.60
2022-11-17T08:19:04.238Z,0.50
2022-11-17T08:21:30.895Z,0.60
2022-11-17T08:24:00.248Z,0.52
2022-11-17T08:26:26.813Z,0.60
2022-11-17T08:28:58.952Z,0.43
2022-11-17T08:31:26.123Z,0.68
2022-11-17T08:33:55.650Z,0.60
2022-11-17T08:36:24.795Z,0.40
2022-11-17T08:38:51.507Z,0.75
2022-11-17T08:41:21.783Z,0.40
2022-11-17T08:43:51.359Z,0.52
2022-11-17T08:46:20.745Z,0.40
2022-11-17T08:48:53.873Z,0.40
2022-11-17T08:51:23.688Z,0.60
2022-11-17T08:53:50.296Z,0.52
2022-11-17T08:56:19.425Z,0.50
2022-11-17T08:58:48.297Z,0.63
2022-11-17T09:01:16.624Z,0.57
2022-11-17T09:03:45.510Z,0.85
2022-11-17T09:06:16.453Z,0.60
2022-11-17T09:08:45.962Z,0.50
2022-11-17T09:11:16.771Z,0.50
2022-11-17T09:13:45.628Z,0.40
2022-11-17T09:16:12.516Z,0.40
2022-11-17T09:18:41.306Z,0.40
2022-11-17T09:21:15.580Z,0.60
2022-11-17T09:23:44.878Z,0.50
2022-11-17T09:26:14.168Z,0.40
2022-11-17T09:28:41.227Z,0.70
2022-11-17T09:31:09.595Z,0.40
2022-11-17T09:33:39.442Z,0.82
2022-11-17T09:36:08.722Z,0.60
2022-11-17T09:38:38.968Z,0.50
2022-11-17T09:41:21.372Z,0.60
2022-11-17T09:44:40.287Z,0.60
2022-11-17T09:47:25.005Z,0.60
2022-11-17T09:50:03.519Z,0.50
2022-11-17T09:52:47.698Z,0.40
2022-11-17T09:55:16.505Z,0.50
2022-11-17T09:57:48.418Z,0.50
2022-11-17T10:00:18.636Z,0.43
2022-11-17T10:02:46.332Z,0.50
2022-11-17T10:05:20.758Z,0.47
2022-11-17T10:07:51.219Z,0.50
2022-11-17T10:10:25.263Z,0.50
2022-11-17T10:12:58.139Z,0.68
2022-11-17T10:15:29.596Z,0.60
2022-11-17T10:17:58.792Z,1.08
2022-11-17T10:20:27.489Z,0.47
2022-11-17T10:22:57.274Z,0.50
2022-11-17T10:25:37.791Z,0.60
2022-11-17T10:28:09.487Z,0.60
2022-11-17T10:30:40.758Z,0.50
2022-11-17T10:33:13.321Z,0.55
2022-11-17T10:35:53.982Z,0.73
2022-11-17T10:38:21.018Z,0.60
2022-11-17T10:40:52.266Z,0.40
2022-11-17T10:43:30.367Z,0.50
2022-11-17T10:46:13.142Z,0.68
2022-11-17T10:48:53.441Z,0.77
2022-11-17T10:51:25.593Z,0.70
2022-11-17T10:54:07.180Z,0.43
2022-11-17T10:56:41.857Z,0.73
2022-11-17T10:59:16.527Z,0.50
2022-11-17T11:01:48.052Z,0.60
2022-11-17T11:04:39.602Z,0.60
2022-11-17T11:07:36.110Z,0.50
2022-11-17T11:10:17.089Z,0.50
2022-11-17T11:13:20.830Z,0.40
2022-11-17T11:15:49.749Z,0.40
2022-11-17T11:18:18.655Z,0.60
2022-11-17T11:21:25.913Z,0.40
2022-11-17T11:24:23.320Z,0.60
2022-11-17T11:27:25.468Z,0.60
2022-11-17T11:30:13.794Z,0.30
2022-11-17T11:32:55.765Z,0.40
2022-11-17T11:35:37.669Z,0.43
2022-11-17T11:38:19.470Z,0.40
2022-11-17T11:41:04.878Z,0.55
2022-11-17T11:43:37.127Z,0.50
2022-11-17T11:46:26.201Z,0.50
2022-11-17T11:48:56.329Z,0.40
2022-11-17T11:51:34.629Z,0.40
2022-11-17T11:54:13.470Z,0.50
2022-11-17T11:56:44.342Z,0.50
2022-11-17T11:59:23.722Z,0.50
2022-11-17T12:02:13.654Z,0.50
2022-11-17T12:04:49.071Z,0.60
2022-11-17T12:07:27.075Z,0.50
2022-11-17T12:10:05.991Z,0.50
2022-11-17T12:12:39.162Z,0.40
2022-11-17T12:15:33.845Z,0.40
2022-11-17T12:18:10.691Z,0.40
2022-11-17T12:20:37.216Z,0.40
2022-11-17T12:23:28.095Z,0.32
2022-11-17T12:25:58.035Z,0.40
2022-11-17T12:28:32.774Z,0.30
2022-11-17T12:31:09.731Z,0.50
2022-11-17T12:33:54.748Z,0.40
2022-11-17T12:36:30.255Z,0.40
2022-11-17T12:39:23.267Z,0.60
2022-11-17T12:41:49.861Z,0.30
2022-11-17T12:44:38.500Z,0.30
2022-11-17T12:47:26.363Z,0.20
2022-11-17T12:50:18.113Z,0.40
2022-11-17T12:53:05.652Z,0.30
2022-11-17T12:55:37.501Z,0.40
2022-11-17T12:58:14.886Z,0.40
2022-11-17T13:00:53.916Z,0.40
2022-11-17T13:03:45.273Z,0.38
2022-11-17T13:09:11.559Z,0.63
2022-11-17T13:11:40.365Z,0.32
2022-11-17T13:14:18.235Z,0.40
2022-11-17T13:16:51.229Z,0.30
2022-11-17T13:19:31.800Z,0.60
2022-11-17T13:22:19.106Z,0.30
2022-11-17T13:24:55.242Z,0.40
2022-11-17T13:27:24.033Z,0.40
2022-11-17T13:30:13.458Z,0.30
2022-11-17T13:32:43.254Z,0.40
2022-11-17T13:35:32.888Z,0.70
2022-11-17T13:38:11.327Z,0.55
2022-11-17T13:40:44.286Z,0.50
2022-11-17T13:43:15.133Z,0.50
2022-11-17T13:45:45.856Z,0.43
2022-11-17T13:48:37.692Z,0.30
2022-11-17T13:51:25.414Z,0.50
2022-11-17T13:53:54.873Z,0.40
2022-11-17T13:56:37.550Z,0.40
2022-11-17T13:59:18.669Z,0.40
2022-11-17T14:01:45.572Z,0.70
2022-11-17T14:04:20.071Z,0.40
2022-11-17T14:07:03.639Z,0.50
2022-11-17T14:09:36.418Z,0.30
2022-11-17T14:12:12.404Z,0.50
2022-11-17T14:14:38.942Z,0.40
2022-11-17T14:17:15.049Z,0.50
2022-11-17T14:19:44.659Z,0.70
2022-11-17T14:22:15.860Z,0.40
2022-11-17T14:24:48.911Z,0.60
2022-11-17T14:27:29.735Z,0.30
2022-11-17T14:29:56.546Z,0.30
2022-11-17T14:32:25.413Z,0.40
2022-11-17T14:34:54.243Z,0.40
2022-11-17T14:37:20.861Z,0.45
2022-11-17T14:39:52.161Z,0.30
2022-11-17T14:42:23.469Z,0.50
2022-11-17T14:44:50.108Z,0.57
2022-11-17T14:47:16.652Z,0.43
2022-11-17T14:49:45.653Z,0.40
2022-11-17T14:52:17.012Z,0.50
2022-11-17T14:54:43.540Z,0.70
2022-11-17T14:57:12.294Z,0.40
2022-11-17T14:59:41.267Z,7.97
2022-11-17T15:02:11.435Z,8.32
2022-11-17T15:04:50.506Z,1.60
2022-11-17T15:07:17.932Z,0.57
2022-11-17T15:09:47.236Z,0.40
2022-11-17T15:12:16.346Z,0.32
2022-11-17T15:14:42.938Z,0.60
2022-11-17T15:17:14.444Z,1.23
2022-11-17T15:19:44.057Z,0.40
2022-11-17T15:22:10.818Z,0.52
2022-11-17T15:24:37.319Z,0.50
2022-11-17T15:27:03.894Z,0.50
2022-11-17T15:29:35.172Z,0.73
2022-11-17T15:32:03.920Z,0.57
2022-11-17T15:34:30.438Z,0.80
2022-11-17T15:36:56.985Z,0.60
2022-11-17T15:39:25.585Z,1.02
2022-11-17T15:41:52.159Z,0.50
2022-11-17T15:44:20.887Z,0.52
2022-11-17T15:46:49.712Z,0.40
2022-11-17T15:49:18.897Z,0.40
2022-11-17T15:51:45.663Z,0.70
2022-11-17T15:54:19.898Z,0.73
2022-11-17T15:56:47.402Z,0.40
2022-11-17T15:59:16.751Z,0.45
2022-11-17T16:01:44.235Z,0.45
2022-11-17T16:04:15.548Z,0.60
2022-11-17T16:06:44.019Z,0.70
2022-11-17T16:09:12.154Z,0.30
2022-11-17T16:11:43.320Z,0.35
2022-11-17T16:14:09.996Z,0.30
2022-11-17T16:16:42.065Z,0.30
2022-11-17T16:19:08.737Z,0.20
2022-11-17T16:21:37.649Z,0.30
2022-11-17T16:24:08.085Z,0.30
2022-11-17T16:26:37.424Z,0.30
2022-11-17T16:29:08.845Z,0.30
2022-11-17T16:31:36.684Z,0.40
2022-11-17T16:34:11.947Z,0.40
2022-11-17T16:36:40.360Z,0.40
2022-11-17T16:39:16.632Z,0.30
2022-11-17T16:41:46.249Z,0.57
2022-11-17T16:44:15.980Z,0.83
2022-11-17T16:46:44.787Z,1.42
2022-11-17T16:49:14.699Z,0.77
2022-11-17T16:51:47.422Z,0.50
2022-11-17T16:54:14.061Z,0.30
2022-11-17T16:56:40.598Z,0.30
2022-11-17T16:59:09.544Z,0.68
2022-11-17T17:01:39.064Z,1.35
2022-11-17T17:04:10.078Z,0.85
2022-11-17T17:06:40.247Z,0.80
2022-11-17T17:09:11.035Z,0.50
2022-11-17T17:11:37.774Z,0.50
2022-11-17T17:14:10.134Z,0.45
2022-11-17T17:16:39.463Z,0.30
2022-11-17T17:19:07.976Z,0.30
2022-11-17T17:21:39.062Z,0.30
2022-11-17T17:24:09.752Z,0.40
2022-11-17T17:26:40.236Z,0.30
2022-11-17T17:29:10.644Z,0.30
2022-11-17T17:31:40.805Z,0.40
2022-11-17T17:34:08.790Z,0.30
2022-11-17T17:36:37.095Z,0.30
2022-11-17T17:39:04.464Z,0.40
2022-11-17T17:41:33.528Z,0.30
2022-11-17T17:44:02.488Z,0.55
2022-11-17T17:46:33.801Z,0.30
2022-11-17T17:49:03.920Z,0.30
2022-11-17T17:51:32.670Z,0.35
2022-11-17T17:54:01.953Z,0.70
2022-11-17T17:56:30.426Z,0.35
2022-11-17T17:58:59.497Z,0.40
2022-11-17T18:01:28.526Z,0.50
2022-11-17T18:04:04.417Z,0.30
2022-11-17T18:06:35.932Z,0.30
2022-11-17T18:09:04.804Z,0.43
2022-11-17T18:11:36.699Z,0.37
2022-11-17T18:14:04.219Z,0.65
2022-11-17T18:16:32.837Z,0.40
2022-11-17T18:19:05.212Z,0.40
2022-11-17T18:21:32.478Z,0.40
2022-11-17T18:24:01.250Z,0.30
2022-11-17T18:26:31.571Z,0.40
2022-11-17T18:29:01.290Z,0.40
2022-11-17T18:31:30.943Z,0.40
2022-11-17T18:34:05.191Z,0.55
2022-11-17T18:36:34.917Z,0.40
2022-11-17T18:39:03.791Z,0.30
2022-11-17T18:41:34.041Z,0.45
2022-11-17T18:44:01.199Z,0.70
2022-11-17T18:46:30.372Z,0.30
2022-11-17T18:48:57.490Z,0.37
2022-11-17T18:51:31.655Z,0.47
2022-11-17T18:54:00.120Z,0.60
2022-11-17T18:56:37.012Z,0.82
2022-11-17T18:59:11.184Z,0.80
2022-11-17T19:01:42.223Z,0.50
2022-11-17T19:04:08.891Z,0.30
2022-11-17T19:06:37.604Z,0.68
2022-11-17T19:09:08.309Z,0.50
2022-11-17T19:11:35.035Z,0.50
2022-11-17T19:14:07.438Z,0.30
2022-11-17T19:16:42.506Z,0.30
2022-11-17T19:19:14.316Z,0.40
2022-11-17T19:21:41.389Z,0.20
2022-11-17T19:24:08.970Z,0.50
2022-11-17T19:26:36.289Z,0.30
2022-11-17T19:29:14.294Z,0.30
2022-11-17T19:31:43.101Z,0.30
2022-11-17T19:34:11.925Z,0.20
2022-11-17T19:36:38.887Z,0.38
2022-11-17T19:39:08.264Z,0.20
2022-11-17T19:41:39.840Z,0.35
2022-11-17T19:44:08.789Z,0.30
2022-11-17T19:46:39.024Z,0.40
2022-11-17T19:49:08.747Z,0.32
2022-11-17T19:51:37.021Z,0.20
2022-11-17T19:54:08.906Z,0.32
2022-11-17T19:56:35.695Z,0.30
2022-11-17T19:59:03.388Z,0.20
2022-11-17T20:01:33.658Z,0.30
2022-11-17T20:04:01.468Z,0.30
2022-11-17T20:06:35.876Z,0.20
2022-11-17T20:09:08.733Z,0.20
2022-11-17T20:11:38.035Z,0.20
2022-11-17T20:14:07.143Z,0.30
2022-11-17T20:16:33.793Z,0.30
2022-11-17T20:19:04.795Z,0.30
2022-11-17T20:21:31.486Z,0.30
2022-11-17T20:23:59.213Z,0.35
2022-11-17T20:26:28.471Z,0.40
2022-11-17T20:28:56.569Z,0.40
2022-11-17T20:31:25.264Z,0.40
2022-11-17T20:33:57.588Z,0.88
2022-11-17T20:36:24.147Z,0.75
2022-11-17T20:38:54.683Z,0.60
2022-11-17T20:41:25.078Z,0.67
2022-11-17T20:43:53.387Z,0.60
2022-11-17T20:46:26.232Z,0.50
2022-11-17T20:48:53.082Z,0.60
2022-11-17T20:51:21.793Z,0.50
2022-11-17T20:53:50.877Z,0.67
2022-11-17T20:56:21.150Z,0.45
2022-11-17T20:58:48.226Z,0.52
2022-11-17T21:01:17.317Z,0.40
2022-11-17T21:03:45.451Z,0.85
2022-11-17T21:06:13.376Z,0.63
2022-11-17T21:08:41.191Z,0.40
2022-11-17T21:11:32.978Z,0.50
2022-11-17T21:14:02.848Z,0.50
2022-11-17T21:16:29.546Z,0.80
2022-11-17T21:18:58.319Z,0.40
2022-11-17T21:21:27.714Z,0.50
2022-11-17T21:23:57.505Z,0.50
2022-11-17T21:26:27.945Z,0.40
2022-11-17T21:28:54.845Z,0.40
2022-11-17T21:31:26.201Z,0.40
2022-11-17T21:33:54.860Z,0.32
2022-11-17T21:36:22.925Z,0.30
2022-11-17T21:38:55.246Z,0.30
2022-11-17T21:41:25.970Z,0.22
2022-11-17T21:43:54.147Z,0.30
2022-11-17T21:46:25.367Z,0.30
2022-11-17T21:48:53.434Z,0.43
2022-11-17T21:51:27.286Z,0.30
2022-11-17T21:53:58.161Z,0.30
2022-11-17T21:56:28.450Z,0.30
2022-11-17T21:59:09.586Z,0.50
2022-11-17T22:01:39.012Z,0.40
2022-11-17T22:04:08.147Z,0.40
2022-11-17T22:06:34.727Z,0.40
2022-11-17T22:09:04.060Z,0.30
2022-11-17T22:11:38.827Z,0.40
2022-11-17T22:14:12.545Z,0.40
2022-11-17T22:16:45.920Z,0.40
2022-11-17T22:19:14.057Z,0.30
2022-11-17T22:21:40.883Z,0.30
2022-11-17T22:24:10.155Z,0.30
2022-11-17T22:26:41.073Z,0.30
2022-11-17T22:29:15.311Z,0.30
2022-11-17T22:31:44.152Z,0.30
2022-11-17T22:34:16.027Z,0.30
2022-11-17T22:36:45.096Z,0.30
2022-11-17T22:39:11.891Z,0.32
2022-11-17T22:41:43.091Z,0.30
2022-11-17T22:44:13.759Z,0.40
2022-11-17T22:46:45.795Z,0.20
2022-11-17T22:49:12.916Z,0.30
2022-11-17T22:51:58.027Z,0.30
2022-11-17T22:54:24.552Z,0.30
2022-11-17T22:56:53.562Z,0.30
2022-11-17T22:59:25.567Z,0.30
2022-11-17T23:01:54.978Z,0.20
2022-11-17T23:04:23.873Z,0.30
2022-11-17T23:06:53.033Z,0.30
2022-11-17T23:09:19.879Z,0.30
2022-11-17T23:11:46.570Z,0.30
2022-11-17T23:14:14.306Z,0.30
2022-11-17T23:16:41.644Z,0.20
2022-11-17T23:19:11.160Z,0.30
2022-11-17T23:21:37.663Z,0.30
2022-11-17T23:24:09.420Z,0.20
2022-11-17T23:26:39.470Z,0.30
2022-11-17T23:29:09.291Z,0.30
2022-11-17T23:31:35.918Z,0.38
2022-11-17T23:34:07.744Z,0.43
2022-11-17T23:36:34.271Z,0.40
2022-11-17T23:39:00.779Z,0.30
2022-11-17T23:41:29.834Z,0.50
2022-11-17T23:43:58.606Z,0.50
2022-11-17T23:46:26.358Z,0.70
2022-11-17T23:48:53.921Z,0.50
2022-11-17T23:51:29.730Z,0.60
2022-11-17T23:54:02.963Z,0.63
2022-11-17T23:56:36.329Z,0.50
2022-11-17T23:59:06.090Z,0.60
